Página principal
METAR-TAF:

METAR-TAF

Aeroportos :

Bamako, Mali

Aeroporto Internacional Modibo Keita

latitude: 12-32N, longitude: 007-57W, altura: 380 m

Observação actual do tempo

O boletim foi feito há 29 minutos, às 11:30 UTC
Vento 6 kt de nor-noroeste
Temperatura 31°C
Humidade 27%
Pressão 1013 hPa
Visibilidade 10 km ou mais
sem nuvens abaixo de 1500 metros e sem cumulonimbus

METAR: GABS 241130Z 33006KT CAVOK 31/10 Q1013 NOSIG

Hora: 11:59 (11:59 UTC)

Previsão

O boletim foi feito há 49 minutos, às 11:10 UTC
Previsão válida de 24 às 12 UTC a 25 às 18 UTC
Vento 8 kt de noroeste
Visibilidade 10 km ou mais
sem nuvens abaixo de 1500 metros e sem cumulonimbus
Tornando-se
de 24 às 22 UTC a 24 às 24 UTC
Vento 8 kt de nor-nordeste

TAF: GABS 241110Z 2412/2518 32008KT CAVOK BECMG 2422/2424 02008KT

Observações e previsões do tempo de mais de 4000 aeroportos (mensagens METAR e TAF).

As estações disponíveis são os pontos amarelos e vermelhos sobre o mapa.

Mova o rato sobre o mapa para ver o nome da estação.

Depois clique no ponto para visualizar as observações e previsões meteorológicas.

Para alterar o mapa : clique nos botões verdes com uma cruz preta para aumentar o zoom; no botão verde com uma pitada de zoom; ou nas setas verdes para mapas adjacentes.


METAR-TAF: